Harrisonburg, Virginia
Current Conditions -  °F | °C
As of 6:55 AM on Thursday 23 Oct 2014 (Local Time) from KVBW Reporting Station
Overcast Overcast  
Wind Chill: 48°   Ceiling: 3400
Heat Index: 48°   Visibility: 10mi
Dew Point: 38°   Wind: 0mph
Humidity: 70%   Direction: NA
Pressure: 30.02"   Gusts: NA
Location:  38.45°N, 78.87°W
Report Text: KVBW 231055Z AUTO 00000KT 10SM OVC034 09/04 A3002 RMK AO2 T00870035
Loading
Personal Weather Stations






























Interactive Weather Map New forecast layout! Learn more

10-Day Weather Forecast

Advertisements
Track Severe Weather on mobile